Terminal Aerodrome Forecast
Issued by NWS Detroit/Pontiac, MI

Home | Current Version | Previous Version | Text Only | Print | Product List | Glossary On
Versions: 1 2 3 4 5 6 7 8 9 10 11 12 13 14
185
FTUS43 KDTX 162320
TAFFNT
TAF
KFNT 162320Z 1700/1724 12007KT P6SM FEW060 SCT250
     FM170200 12005KT P6SM SCT050 BKN150
     FM170900 12007KT 5SM BR BKN028 OVC060
     FM171300 14009KT P6SM BKN030 PROB30 1713/1717 2SM +TSRA BKN014
      OVC022CB
     FM171900 20013G20KT P6SM BKN030 PROB30 1721/1724 2SM +TSRA
      BKN020 OVC030CB=

USA.gov is the U.S. government's official web portal to all federal, state and local government web resources and services.